Thunder radar more information blitzortung!


Rain radar more information rain snow radar


Andere websites:

Onze vorige site

Leuven Template


Rapports METAR proximité

   
EHGG - Leeuwarden
Mise à jour: 30-09-2022 01:25
Brouillard, Peu de nuages  
Brouillard, Peu de nuages  
   Vent: NNO 1.9 km/h
Vent: NNO 1.9 km/h
Température: 6°C
Point de rosée: 5°C
Humidité: 93%
Baromètre: 1006 hPa
Nuageux: Peu de nuages
visibilité: 0 km
Détails des nuages: Peu de nuages
EHGG 292325Z AUTO 34001KT 0300 R23/0400U FG FEW000 06/05 Q1006
EHGG - Terschelling
Mise à jour: 30-09-2022 01:25
Brouillard, Peu de nuages  
Brouillard, Peu de nuages  
   Vent: NNO 1.9 km/h
Vent: NNO 1.9 km/h
Température: 6°C
Point de rosée: 5°C
Humidité: 93%
Baromètre: 1006 hPa
Nuageux: Peu de nuages
visibilité: 0 km
Détails des nuages: Peu de nuages
EHGG 292325Z AUTO 34001KT 0300 R23/0400U FG FEW000 06/05 Q1006
EHAM - Amsterdam
Mise à jour: 30-09-2022 01:25
Claires  
Claires  
   Vent: Sud 1.9 km/h
Vent: Sud 1.9 km/h
Température: 9°C
Point de rosée: 8°C
Humidité: 94%
Baromètre: 1007 hPa
visibilité: More than 10 km
Détails des nuages: Claires
EHAM 292325Z 19001KT CAVOK 09/08 Q1007 NOSIG
EHBK - Maastricht
Mise à jour: 30-09-2022 01:25
Claires  
Claires  
   Vent: SSO 9.3 km/h
Vent: SSO 9.3 km/h
Température: 6°C
éolien: 4°C
Point de rosée: 5°C
Humidité: 93%
Baromètre: 1008 hPa
Nuageux: Claires
visibilité: More than 10 km
Détails des nuages: Claires
EHBK 292325Z AUTO 20005KT 9999 NCD 06/05 Q1008
  

Script développé par  Saratoga-weather.org Adapté pour le modèle par  Weerstation Leuven

Vous trouverez notre info météo Également à:

UK Metoffice

European Weather Network

Weather Underground

AWEKAS

Équipement que nous utilisons:

Station de Météo
Davis VP2

Programme Météo
Cumulus

Davis VP2

Cumulus